Terminal Aerodrome Forecast
Issued by NWS King Salmon, AK

Home | Current Version | Previous Version | Text Only | Print | Product List | Glossary On
Versions: 1 2 3 4 5 6 7 8 9 10 11 12 13 14 15 16 17 18 19 20 21 22 23 24 25 26 27 28 29 30 31 32
000
FTAK31 PANC 272335
TAFAKN
TAF
PAKN 272335Z 2800/2824 13010G20KT P6SM -RA SCT015 BKN025 OVC050
      TEMPO 2800/2804 19008KT 5SM -RA BR BKN020
     FM280600 15008KT P6SM -RA SCT025 OVC050
     FM281500 15005KT 5SM -RA BR BKN015 OVC025
     FM281800 13005KT P6SM SCT015 OVC025=

USA.gov is the U.S. government's official web portal to all federal, state and local government web resources and services.